createdAt,value
2023-05-21T00:00:18.174Z,99953.16
2023-05-21T00:01:20.876Z,99950.63
2023-05-21T00:02:25.712Z,99956.16
2023-05-21T00:03:30.384Z,99953.38
2023-05-21T00:04:33.844Z,99949.78
2023-05-21T00:05:37.785Z,99949.78
2023-05-21T00:06:39.749Z,99946.78
2023-05-21T00:07:42.657Z,99951.47
2023-05-21T00:08:44.469Z,99950.63
2023-05-21T00:09:47.191Z,99949.53
2023-05-21T00:10:48.994Z,99944.84
2023-05-21T00:11:51.706Z,99942.94
2023-05-21T00:12:54.791Z,99940.41
2023-05-21T00:13:57.631Z,99945.34
2023-05-21T00:14:59.805Z,99947.00
2023-05-21T00:16:02.633Z,99938.13
2023-05-21T00:17:04.781Z,99940.06
2023-05-21T00:18:07.688Z,99939.22
2023-05-21T00:19:10.307Z,99941.13
2023-05-21T00:20:13.682Z,99934.75
2023-05-21T00:21:17.242Z,99940.28
2023-05-21T00:22:20.134Z,99933.09
2023-05-21T00:23:21.896Z,99929.22
2023-05-21T00:24:24.637Z,99937.53
2023-05-21T00:25:26.428Z,99935.59
2023-05-21T00:26:29.131Z,99930.34
2023-05-21T00:27:30.873Z,99929.22
2023-05-21T00:28:35.065Z,99920.09
2023-05-21T00:29:36.793Z,99928.38
2023-05-21T00:30:39.850Z,99930.34
2023-05-21T00:31:41.668Z,99923.97
2023-05-21T00:32:44.656Z,99922.28
2023-05-21T00:33:46.405Z,99917.81
2023-05-21T00:34:49.263Z,99923.56
2023-05-21T00:35:51.099Z,99922.50
2023-05-21T00:36:55.502Z,99916.97
2023-05-21T00:37:57.473Z,99914.44
2023-05-21T00:39:00.243Z,99917.81
2023-05-21T00:40:02.706Z,99916.09
2023-05-21T00:41:05.542Z,99928.25
2023-05-21T00:42:07.465Z,99914.69
2023-05-21T00:43:10.729Z,99916.38
2023-05-21T00:44:14.115Z,99913.84
2023-05-21T00:45:16.970Z,99909.38
2023-05-21T00:46:20.856Z,99914.06
2023-05-21T00:47:24.007Z,99914.91
2023-05-21T00:48:26.229Z,99912.38
2023-05-21T00:49:31.031Z,99906.03
2023-05-21T00:50:33.109Z,99907.09
2023-05-21T00:51:35.828Z,99909.88
2023-05-21T00:52:42.031Z,99909.03
2023-05-21T00:53:45.947Z,99901.81
2023-05-21T00:54:49.334Z,99905.41
2023-05-21T00:55:52.270Z,99905.66
2023-05-21T00:56:54.087Z,99902.03
2023-05-21T00:57:56.915Z,99906.50
2023-05-21T00:58:58.840Z,99910.94
2023-05-21T01:00:04.567Z,99900.97
2023-05-21T01:01:07.158Z,99904.81
2023-05-21T01:02:14.114Z,99906.25
2023-05-21T01:03:16.419Z,99898.22
2023-05-21T01:04:20.389Z,99903.72
2023-05-21T01:05:22.321Z,99906.50
2023-05-21T01:06:25.036Z,99902.88
2023-05-21T01:07:26.767Z,99900.13
2023-05-21T01:08:30.440Z,99900.13
2023-05-21T01:09:32.155Z,99896.50
2023-05-21T01:10:34.861Z,99893.75
2023-05-21T01:11:39.177Z,99896.50
2023-05-21T01:12:44.237Z,99896.50
2023-05-21T01:13:46.728Z,99892.94
2023-05-21T01:14:49.753Z,99899.28
2023-05-21T01:15:53.793Z,99891.00
2023-05-21T01:16:56.798Z,99883.19
2023-05-21T01:17:58.641Z,99889.56
2023-05-21T01:19:04.467Z,99879.59
2023-05-21T01:20:10.167Z,99877.06
2023-05-21T01:21:12.903Z,99884.28
2023-05-21T01:22:15.343Z,99884.28
2023-05-21T01:23:20.068Z,99880.94
2023-05-21T01:24:22.089Z,99884.53
2023-05-21T01:25:25.347Z,99879.00
2023-05-21T01:26:28.538Z,99877.31
2023-05-21T01:27:31.267Z,99874.56
2023-05-21T01:28:34.593Z,99874.56
2023-05-21T01:29:37.330Z,99875.63
2023-05-21T01:30:40.094Z,99883.09
2023-05-21T01:31:57.075Z,99873.94
2023-05-21T01:33:04.543Z,99877.78
2023-05-21T01:34:11.146Z,99871.44
2023-05-21T01:35:15.898Z,99873.38
2023-05-21T01:36:21.815Z,99872.25
2023-05-21T01:37:28.646Z,99872.53
2023-05-21T01:38:39.311Z,99872.75
2023-05-21T01:39:44.664Z,99870.84
2023-05-21T01:40:54.439Z,99871.44
2023-05-21T01:41:56.690Z,99875.28
2023-05-21T01:42:59.635Z,99865.91
2023-05-21T01:44:02.349Z,99866.72
2023-05-21T01:45:07.067Z,99867.56
2023-05-21T01:46:11.149Z,99869.25
2023-05-21T01:47:14.998Z,99868.41
2023-05-21T01:48:17.605Z,99868.41
2023-05-21T01:49:20.520Z,99859.28
2023-05-21T01:50:23.580Z,99863.72
2023-05-21T01:51:26.714Z,99854.59
2023-05-21T01:52:28.520Z,99863.16
2023-05-21T01:53:32.675Z,99865.91
2023-05-21T01:54:34.409Z,99861.47
2023-05-21T01:55:39.646Z,99859.53
2023-05-21T01:56:41.494Z,99860.63
2023-05-21T01:57:44.234Z,99857.50
2023-05-21T01:58:45.946Z,99863.63
2023-05-21T01:59:48.898Z,99857.25
2023-05-21T02:00:51.200Z,99857.84
2023-05-21T02:01:53.991Z,99857.50
2023-05-21T02:02:55.761Z,99859.16
2023-05-21T02:03:58.895Z,99850.03
2023-05-21T02:05:00.739Z,99846.47
2023-05-21T02:06:03.625Z,99848.38
2023-05-21T02:07:06.888Z,99859.16
2023-05-21T02:08:08.864Z,99851.13
2023-05-21T02:09:12.985Z,99858.31
2023-05-21T02:10:14.811Z,99852.78
2023-05-21T02:11:17.626Z,99859.16
2023-05-21T02:12:20.330Z,99850.88
2023-05-21T02:13:25.822Z,99854.47
2023-05-21T02:14:29.808Z,99856.41
2023-05-21T02:15:34.896Z,99850.03
2023-05-21T02:16:38.541Z,99850.03
2023-05-21T02:17:40.619Z,99849.22
2023-05-21T02:18:44.361Z,99851.97
2023-05-21T02:19:46.227Z,99850.03
2023-05-21T02:20:48.963Z,99845.84
2023-05-21T02:21:50.695Z,99848.59
2023-05-21T02:22:53.427Z,99850.28
2023-05-21T02:23:55.767Z,99847.78
2023-05-21T02:25:00.393Z,99846.91
2023-05-21T02:26:02.164Z,99845.22
2023-05-21T02:27:06.347Z,99850.75
2023-05-21T02:28:08.148Z,99853.78
2023-05-21T02:29:11.326Z,99850.75
2023-05-21T02:30:14.907Z,99851.03
2023-05-21T02:31:17.610Z,99848.50
2023-05-21T02:32:19.318Z,99852.09
2023-05-21T02:33:22.088Z,99849.34
2023-05-21T02:34:24.685Z,99849.56
2023-05-21T02:35:27.674Z,99851.25
2023-05-21T02:36:33.221Z,99847.41
2023-05-21T02:37:36.278Z,99841.91
2023-05-21T02:38:38.297Z,99842.75
2023-05-21T02:39:41.044Z,99847.41
2023-05-21T02:40:44.175Z,99849.94
2023-05-21T02:41:47.232Z,99849.94
2023-05-21T02:42:48.989Z,99840.81
2023-05-21T02:43:51.663Z,99847.19
2023-05-21T02:44:53.569Z,99842.75
2023-05-21T02:45:56.596Z,99844.88
2023-05-21T02:46:58.363Z,99843.19
2023-05-21T02:48:01.093Z,99845.13
2023-05-21T02:49:02.895Z,99847.88
2023-05-21T02:50:07.959Z,99846.22
2023-05-21T02:51:10.700Z,99850.66
2023-05-21T02:52:12.610Z,99846.81
2023-05-21T02:53:15.338Z,99855.09
2023-05-21T02:54:17.105Z,99848.72
2023-05-21T02:55:19.855Z,99844.03
2023-05-21T02:56:23.384Z,99842.34
2023-05-21T02:57:26.114Z,99847.66
2023-05-21T02:58:28.866Z,99839.38
2023-05-21T02:59:30.801Z,99849.56
2023-05-21T03:00:33.560Z,99848.50
2023-05-21T03:01:35.396Z,99844.03
2023-05-21T03:02:38.151Z,99847.66
2023-05-21T03:03:40.155Z,99847.66
2023-05-21T03:04:46.162Z,99842.97
2023-05-21T03:05:48.499Z,99844.88
2023-05-21T03:06:54.909Z,99841.91
2023-05-21T03:07:56.655Z,99841.28
2023-05-21T03:08:59.411Z,99840.19
2023-05-21T03:10:01.298Z,99842.13
2023-05-21T03:11:04.796Z,99844.03
2023-05-21T03:12:08.350Z,99847.41
2023-05-21T03:13:11.127Z,99841.03
2023-05-21T03:14:13.400Z,99841.91
2023-05-21T03:15:16.106Z,99844.66
2023-05-21T03:16:18.066Z,99846.34
2023-05-21T03:17:22.312Z,99842.47
2023-05-21T03:18:24.311Z,99839.72
2023-05-21T03:19:27.170Z,99839.72
2023-05-21T03:20:29.623Z,99840.56
2023-05-21T03:21:32.363Z,99847.78
2023-05-21T03:22:34.123Z,99840.31
2023-05-21T03:23:36.986Z,99840.31
2023-05-21T03:24:38.921Z,99838.41
2023-05-21T03:25:41.702Z,99835.63
2023-05-21T03:26:43.445Z,99840.31
2023-05-21T03:27:47.497Z,99838.41
2023-05-21T03:28:49.226Z,99840.31
2023-05-21T03:29:55.055Z,99834.78
2023-05-21T03:30:56.831Z,99835.88
2023-05-21T03:31:59.592Z,99838.63
2023-05-21T03:33:03.354Z,99845.22
2023-05-21T03:34:06.095Z,99827.84
2023-05-21T03:35:08.511Z,99833.38
2023-05-21T03:36:11.248Z,99831.41
2023-05-21T03:37:13.038Z,99834.19
2023-05-21T03:38:15.738Z,99833.09
2023-05-21T03:39:17.573Z,99833.09
2023-05-21T03:40:21.816Z,99828.44
2023-05-21T03:41:23.620Z,99833.94
2023-05-21T03:42:26.345Z,99832.88
2023-05-21T03:43:29.640Z,99827.34
2023-05-21T03:44:32.954Z,99830.97
2023-05-21T03:45:35.194Z,99829.88
2023-05-21T03:46:38.220Z,99835.41
2023-05-21T03:47:41.686Z,99832.88
2023-05-21T03:48:44.490Z,99828.66
2023-05-21T03:49:46.206Z,99835.03
2023-05-21T03:50:48.890Z,99840.56
2023-05-21T03:51:50.878Z,99836.13
2023-05-21T03:52:53.614Z,99835.28
2023-05-21T03:53:55.307Z,99831.69
2023-05-21T03:54:57.988Z,99835.28
2023-05-21T03:55:59.715Z,99832.53
2023-05-21T03:57:02.471Z,99836.94
2023-05-21T03:58:04.244Z,99839.72
2023-05-21T03:59:08.372Z,99842.47
2023-05-21T04:00:10.677Z,99846.91
2023-05-21T04:01:13.436Z,99842.25
2023-05-21T04:02:15.290Z,99848.59
2023-05-21T04:03:18.108Z,99843.09
2023-05-21T04:04:20.036Z,99845.00
2023-05-21T04:05:22.765Z,99841.16
2023-05-21T04:06:24.542Z,99845.84
2023-05-21T04:07:27.272Z,99842.00
2023-05-21T04:08:29.029Z,99843.09
2023-05-21T04:09:31.808Z,99846.47
2023-05-21T04:10:34.226Z,99843.09
2023-05-21T04:11:36.965Z,99844.78
2023-05-21T04:12:38.664Z,99843.69
2023-05-21T04:13:41.426Z,99844.50
2023-05-21T04:14:44.534Z,99845.34
2023-05-21T04:15:47.276Z,99851.72
2023-05-21T04:16:49.903Z,99848.72
2023-05-21T04:17:53.147Z,99845.97
2023-05-21T04:18:55.585Z,99849.34
2023-05-21T04:19:58.353Z,99845.47
2023-05-21T04:21:00.805Z,99844.38
2023-05-21T04:22:03.579Z,99847.75
2023-05-21T04:23:05.362Z,99839.22
2023-05-21T04:24:08.059Z,99846.66
2023-05-21T04:25:10.265Z,99850.03
2023-05-21T04:26:13.712Z,99841.75
2023-05-21T04:27:16.721Z,99836.81
2023-05-21T04:28:20.375Z,99845.09
2023-05-21T04:29:22.251Z,99850.63
2023-05-21T04:30:26.352Z,99857.00
2023-05-21T04:31:28.179Z,99860.59
2023-05-21T04:32:31.695Z,99847.88
2023-05-21T04:33:33.443Z,99854.81
2023-05-21T04:34:36.139Z,99844.38
2023-05-21T04:35:38.061Z,99846.31
2023-05-21T04:36:41.776Z,99846.03
2023-05-21T04:37:45.882Z,99846.88
2023-05-21T04:38:48.762Z,99852.41
2023-05-21T04:39:50.691Z,99853.00
2023-05-21T04:40:53.642Z,99856.63
2023-05-21T04:41:56.650Z,99850.25
2023-05-21T04:43:00.843Z,99851.69
2023-05-21T04:44:02.631Z,99856.16
2023-05-21T04:45:05.979Z,99855.09
2023-05-21T04:46:09.148Z,99853.50
2023-05-21T04:47:14.782Z,99854.34
2023-05-21T04:48:17.813Z,99865.16
2023-05-21T04:49:20.941Z,99854.97
2023-05-21T04:50:23.234Z,99857.22
2023-05-21T04:51:26.715Z,99852.78
2023-05-21T04:52:28.415Z,99858.06
2023-05-21T04:53:31.123Z,99848.94
2023-05-21T04:54:32.850Z,99853.63
2023-05-21T04:55:39.621Z,99862.13
2023-05-21T04:56:41.394Z,99850.63
2023-05-21T04:57:44.090Z,99857.00
2023-05-21T04:58:45.861Z,99853.09
2023-05-21T04:59:49.220Z,99852.88
2023-05-21T05:00:51.995Z,99856.25
2023-05-21T05:01:56.123Z,99854.56
2023-05-21T05:02:57.950Z,99855.41
2023-05-21T05:04:00.743Z,99847.69
2023-05-21T05:05:03.251Z,99854.06
2023-05-21T05:06:07.723Z,99863.19
2023-05-21T05:07:09.462Z,99854.91
2023-05-21T05:08:14.592Z,99858.50
2023-05-21T05:09:17.464Z,99856.59
2023-05-21T05:10:20.182Z,99854.91
2023-05-21T05:11:22.375Z,99855.50
2023-05-21T05:12:25.158Z,99851.91
2023-05-21T05:13:27.154Z,99862.72
2023-05-21T05:14:29.895Z,99851.41
2023-05-21T05:15:31.755Z,99852.25
2023-05-21T05:16:35.568Z,99859.22
2023-05-21T05:17:39.685Z,99855.13
2023-05-21T05:18:42.503Z,99858.72
2023-05-21T05:19:44.254Z,99852.13
2023-05-21T05:20:47.705Z,99854.38
2023-05-21T05:21:49.476Z,99849.69
2023-05-21T05:22:52.222Z,99849.44
2023-05-21T05:23:54.959Z,99850.88
2023-05-21T05:24:56.789Z,99848.09
2023-05-21T05:25:59.496Z,99843.19
2023-05-21T05:27:01.217Z,99847.88
2023-05-21T05:28:03.934Z,99847.88
2023-05-21T05:29:05.639Z,99845.09
2023-05-21T05:30:10.449Z,99849.28
2023-05-21T05:31:12.242Z,99841.81
2023-05-21T05:32:14.987Z,99852.41
2023-05-21T05:33:18.095Z,99850.47
2023-05-21T05:34:21.546Z,99851.31
2023-05-21T05:35:23.312Z,99850.00
2023-05-21T05:36:26.157Z,99850.84
2023-05-21T05:37:27.964Z,99845.31
2023-05-21T05:38:31.177Z,99850.31
2023-05-21T05:39:32.933Z,99854.78
2023-05-21T05:40:35.760Z,99849.00
2023-05-21T05:41:37.705Z,99840.94
2023-05-21T05:42:40.480Z,99849.34
2023-05-21T05:43:42.222Z,99851.03
2023-05-21T05:44:45.670Z,99855.47
2023-05-21T05:45:47.680Z,99852.44
2023-05-21T05:46:50.422Z,99846.41
2023-05-21T05:47:52.339Z,99846.16
2023-05-21T05:48:56.484Z,99847.63
2023-05-21T05:49:58.291Z,99847.09
2023-05-21T05:51:01.232Z,99851.06
2023-05-21T05:52:03.049Z,99851.16
2023-05-21T05:53:07.213Z,99859.56
2023-05-21T05:54:08.934Z,99853.28
2023-05-21T05:55:11.935Z,99853.63
2023-05-21T05:56:13.712Z,99857.84
2023-05-21T05:57:16.413Z,99845.41
2023-05-21T05:58:18.204Z,99856.00
2023-05-21T05:59:20.965Z,99853.81
2023-05-21T06:00:23.150Z,99854.16
2023-05-21T06:01:26.279Z,99855.34
2023-05-21T06:02:28.089Z,99854.81
2023-05-21T06:03:30.945Z,99853.50
2023-05-21T06:04:34.099Z,99857.66
2023-05-21T06:05:36.939Z,99851.63
2023-05-21T06:06:38.936Z,99846.16
2023-05-21T06:07:42.171Z,99848.16
2023-05-21T06:08:43.933Z,99844.31
2023-05-21T06:09:46.633Z,99843.78
2023-05-21T06:10:48.393Z,99844.16
2023-05-21T06:11:51.112Z,99851.44
2023-05-21T06:12:52.855Z,99845.41
2023-05-21T06:13:55.549Z,99851.25
2023-05-21T06:14:57.360Z,99840.50
2023-05-21T06:16:00.057Z,99840.56
2023-05-21T06:17:01.848Z,99852.00
2023-05-21T06:19:06.536Z,99850.25
2023-05-21T06:20:12.143Z,99849.22
2023-05-21T06:21:13.901Z,99847.59
2023-05-21T06:22:16.629Z,99849.63
2023-05-21T06:23:18.420Z,99850.78
2023-05-21T06:24:22.230Z,99851.97
2023-05-21T06:25:25.657Z,99848.97
2023-05-21T06:26:28.465Z,99855.44
2023-05-21T06:27:30.649Z,99846.34
2023-05-21T06:28:33.420Z,99849.44
2023-05-21T06:29:35.175Z,99850.59
2023-05-21T06:30:37.882Z,99851.19
2023-05-21T06:31:39.604Z,99856.22
2023-05-21T06:32:42.365Z,99853.16
2023-05-21T06:33:44.314Z,99840.13
2023-05-21T06:34:47.042Z,99845.75
2023-05-21T06:35:50.179Z,99846.00
2023-05-21T06:36:52.865Z,99852.97
2023-05-21T06:37:54.555Z,99856.06
2023-05-21T06:38:57.793Z,99852.19
2023-05-21T06:39:59.527Z,99852.75
2023-05-21T06:41:03.923Z,99857.81
2023-05-21T06:42:07.104Z,99845.13
2023-05-21T06:43:08.872Z,99852.06
2023-05-21T06:44:11.590Z,99844.94
2023-05-21T06:45:14.323Z,99848.00
2023-05-21T06:46:16.501Z,99852.53
2023-05-21T06:47:19.276Z,99842.28
2023-05-21T06:48:21.153Z,99849.31
2023-05-21T06:49:23.959Z,99859.94
2023-05-21T06:50:25.850Z,99851.13
2023-05-21T06:51:30.024Z,99854.84
2023-05-21T06:52:31.843Z,99860.50
2023-05-21T06:53:34.560Z,99855.06
2023-05-21T06:54:37.252Z,99862.38
2023-05-21T06:55:39.200Z,99858.25
2023-05-21T06:56:42.015Z,99858.59
2023-05-21T06:57:43.866Z,99854.75
2023-05-21T06:58:46.675Z,99857.00
2023-05-21T06:59:48.382Z,99869.00
2023-05-21T07:00:51.097Z,99862.97
2023-05-21T07:01:53.894Z,99856.00
2023-05-21T07:02:55.762Z,99857.13
2023-05-21T07:03:58.561Z,99859.41
2023-05-21T07:05:00.254Z,99858.00
2023-05-21T07:06:02.971Z,99856.91
2023-05-21T07:07:06.135Z,99855.25
2023-05-21T07:08:10.663Z,99867.56
2023-05-21T07:09:13.602Z,99858.09
2023-05-21T07:10:16.436Z,99855.59
2023-05-21T07:11:18.167Z,99854.78
2023-05-21T07:12:20.925Z,99860.66
2023-05-21T07:13:22.810Z,99864.53
2023-05-21T07:14:26.180Z,99855.34
2023-05-21T07:15:27.857Z,99853.94
2023-05-21T07:16:30.644Z,99855.91
2023-05-21T07:17:33.433Z,99858.72
2023-05-21T07:18:35.207Z,99854.03
2023-05-21T07:19:38.150Z,99852.94
2023-05-21T07:20:39.927Z,99848.53
2023-05-21T07:21:42.661Z,99851.06
2023-05-21T07:22:45.931Z,99852.19
2023-05-21T07:23:48.656Z,99852.75
2023-05-21T07:24:50.388Z,99851.66
2023-05-21T07:25:53.744Z,99855.34
2023-05-21T07:26:55.474Z,99859.22
2023-05-21T07:27:58.278Z,99856.19
2023-05-21T07:29:01.002Z,99855.63
2023-05-21T07:30:02.781Z,99860.63
2023-05-21T07:31:05.686Z,99850.91
2023-05-21T07:32:08.598Z,99850.63
2023-05-21T07:33:10.456Z,99852.28
2023-05-21T07:34:13.254Z,99851.16
2023-05-21T07:35:15.107Z,99856.22
2023-05-21T07:36:17.847Z,99860.66
2023-05-21T07:37:19.947Z,99853.44
2023-05-21T07:38:24.142Z,99862.88
2023-05-21T07:39:26.923Z,99847.00
2023-05-21T07:40:28.628Z,99849.50
2023-05-21T07:41:31.448Z,99852.84
2023-05-21T07:42:33.322Z,99857.03
2023-05-21T07:43:36.731Z,99853.41
2023-05-21T07:44:39.517Z,99853.13
2023-05-21T07:45:41.327Z,99858.16
2023-05-21T07:46:44.130Z,99855.09
2023-05-21T07:47:46.564Z,99860.09
2023-05-21T07:48:49.946Z,99850.38
2023-05-21T07:49:51.719Z,99854.81
2023-05-21T07:50:54.705Z,99851.75
2023-05-21T07:51:56.550Z,99855.13
2023-05-21T07:52:59.541Z,99852.31
2023-05-21T07:54:02.607Z,99843.09
2023-05-21T07:55:06.324Z,99850.59
2023-05-21T07:56:08.141Z,99850.84
2023-05-21T07:57:10.992Z,99849.69
2023-05-21T07:58:12.742Z,99850.25
2023-05-21T07:59:15.984Z,99850.81
2023-05-21T08:00:17.925Z,99853.84
2023-05-21T08:01:22.637Z,99851.56
2023-05-21T08:02:24.464Z,99849.00
2023-05-21T08:03:27.972Z,99849.28
2023-05-21T08:04:30.119Z,99847.53
2023-05-21T08:05:33.596Z,99847.75
2023-05-21T08:06:37.442Z,99846.91
2023-05-21T08:07:40.129Z,99850.78
2023-05-21T08:08:41.901Z,99847.47
2023-05-21T08:09:45.973Z,99848.81
2023-05-21T08:10:48.943Z,99842.66
2023-05-21T08:11:51.031Z,99855.75
2023-05-21T08:12:53.952Z,99852.91
2023-05-21T08:13:56.421Z,99847.00
2023-05-21T08:14:59.260Z,99850.31
2023-05-21T08:16:01.011Z,99853.00
2023-05-21T08:17:03.831Z,99847.34
2023-05-21T08:18:05.706Z,99852.63
2023-05-21T08:19:08.520Z,99853.69
2023-05-21T08:20:11.152Z,99857.31
2023-05-21T08:21:13.873Z,99857.31
2023-05-21T08:22:15.728Z,99854.53
2023-05-21T08:23:18.482Z,99848.94
2023-05-21T08:24:20.303Z,99848.94
2023-05-21T08:25:24.395Z,99857.56
2023-05-21T08:26:26.260Z,99856.38
2023-05-21T08:27:29.047Z,99852.94
2023-05-21T08:28:30.912Z,99860.16
2023-05-21T08:29:34.076Z,99855.06
2023-05-21T08:30:36.134Z,99857.50
2023-05-21T08:31:40.363Z,99854.88
2023-05-21T08:32:42.476Z,99858.41
2023-05-21T08:33:51.636Z,99852.44
2023-05-21T08:34:53.769Z,99861.25
2023-05-21T08:35:56.557Z,99859.44
2023-05-21T08:36:58.297Z,99856.00
2023-05-21T08:38:00.997Z,99858.41
2023-05-21T08:39:02.762Z,99857.00
2023-05-21T08:40:06.964Z,99855.56
2023-05-21T08:41:11.588Z,99859.13
2023-05-21T08:42:35.681Z,99851.47
2023-05-21T08:43:40.100Z,99855.59
2023-05-21T08:44:46.177Z,99851.59
2023-05-21T08:45:54.974Z,99847.88
2023-05-21T08:46:57.851Z,99850.31
2023-05-21T08:48:00.878Z,99851.88
2023-05-21T08:49:03.534Z,99846.19
2023-05-21T08:50:07.339Z,99851.44
2023-05-21T08:51:10.034Z,99846.78
2023-05-21T08:52:12.585Z,99856.47
2023-05-21T08:53:26.575Z,99844.91
2023-05-21T08:54:30.237Z,99841.19
2023-05-21T08:55:33.583Z,99843.91
2023-05-21T08:56:36.873Z,99843.81
2023-05-21T08:57:43.557Z,99839.78
2023-05-21T08:58:46.551Z,99841.38
2023-05-21T08:59:49.946Z,99838.13
2023-05-21T09:00:51.823Z,99841.06
2023-05-21T09:01:54.786Z,99839.84
2023-05-21T09:02:57.422Z,99840.88
2023-05-21T09:04:12.211Z,99846.50
2023-05-21T09:05:23.516Z,99836.63
2023-05-21T09:06:26.029Z,99843.63
2023-05-21T09:07:29.121Z,99840.22
2023-05-21T09:08:32.230Z,99848.53
2023-05-21T09:09:35.946Z,99844.47
2023-05-21T09:10:40.293Z,99835.94
2023-05-21T09:11:46.447Z,99847.06
2023-05-21T09:12:48.976Z,99845.00
2023-05-21T09:13:52.700Z,99844.06
2023-05-21T09:14:56.722Z,99847.91
2023-05-21T09:15:59.398Z,99841.88
2023-05-21T09:17:02.349Z,99839.78
2023-05-21T09:18:04.259Z,99844.69
2023-05-21T09:19:07.521Z,99836.16
2023-05-21T09:20:12.459Z,99848.44
2023-05-21T09:21:25.425Z,99843.53
2023-05-21T09:22:27.753Z,99845.41
2023-05-21T09:23:30.573Z,99841.63
2023-05-21T09:24:35.039Z,99835.06
2023-05-21T09:25:39.893Z,99836.09
2023-05-21T09:26:44.199Z,99836.28
2023-05-21T09:27:46.977Z,99838.47
2023-05-21T09:28:48.732Z,99834.72
2023-05-21T09:29:51.458Z,99841.06
2023-05-21T09:30:54.163Z,99835.31
2023-05-21T09:31:57.093Z,99841.69
2023-05-21T09:32:59.924Z,99835.41
2023-05-21T09:34:02.761Z,99834.44
2023-05-21T09:35:09.443Z,99834.63
2023-05-21T09:36:14.505Z,99831.50
2023-05-21T09:37:26.517Z,99831.31
2023-05-21T09:38:30.271Z,99835.28
2023-05-21T09:39:32.002Z,99834.97
2023-05-21T09:40:36.428Z,99840.59
2023-05-21T09:41:38.414Z,99827.34
2023-05-21T09:42:43.805Z,99834.63
2023-05-21T09:43:45.763Z,99836.00
2023-05-21T09:44:48.704Z,99830.38
2023-05-21T09:45:51.368Z,99831.19
2023-05-21T09:46:58.644Z,99829.53
2023-05-21T09:48:00.570Z,99828.69
2023-05-21T09:49:03.364Z,99835.16
2023-05-21T09:50:06.518Z,99831.19
2023-05-21T09:51:14.354Z,99836.69
2023-05-21T09:52:23.570Z,99834.25
2023-05-21T09:53:26.345Z,99840.59
2023-05-21T09:54:31.899Z,99835.00
2023-05-21T09:55:37.398Z,99833.41
2023-05-21T09:56:39.893Z,99837.47
2023-05-21T09:57:44.642Z,99835.00
2023-05-21T09:58:46.556Z,99837.06
2023-05-21T09:59:51.676Z,99834.59
2023-05-21T10:00:53.521Z,99835.28
2023-05-21T10:01:56.591Z,99834.31
2023-05-21T10:03:01.406Z,99837.31
2023-05-21T10:04:06.593Z,99836.66
2023-05-21T10:05:09.296Z,99830.19
2023-05-21T10:06:13.706Z,99837.50
2023-05-21T10:07:16.170Z,99834.16
2023-05-21T10:08:20.171Z,99834.47
2023-05-21T10:09:22.634Z,99830.03
2023-05-21T10:10:25.473Z,99828.84
2023-05-21T10:11:28.151Z,99836.66
2023-05-21T10:12:31.952Z,99831.53
2023-05-21T10:13:40.044Z,99824.75
2023-05-21T10:14:43.045Z,99830.56
2023-05-21T10:15:47.815Z,99831.59
2023-05-21T10:16:53.841Z,99832.41
2023-05-21T10:17:55.794Z,99829.91
2023-05-21T10:18:59.246Z,99827.25
2023-05-21T10:20:02.226Z,99829.38
2023-05-21T10:21:07.144Z,99828.69
2023-05-21T10:22:09.977Z,99827.16
2023-05-21T10:23:14.005Z,99829.31
2023-05-21T10:24:16.012Z,99824.13
2023-05-21T10:25:18.783Z,99820.47
2023-05-21T10:26:21.599Z,99818.81
2023-05-21T10:27:24.546Z,99822.97
2023-05-21T10:28:26.417Z,99824.28
2023-05-21T10:29:32.544Z,99823.97
2023-05-21T10:30:34.819Z,99823.66
2023-05-21T10:31:40.028Z,99823.84
2023-05-21T10:32:42.402Z,99824.53
2023-05-21T10:33:45.253Z,99822.06
2023-05-21T10:34:48.494Z,99817.44
2023-05-21T10:35:51.432Z,99827.09
2023-05-21T10:36:55.994Z,99828.97
2023-05-21T10:37:58.753Z,99825.63
2023-05-21T10:39:01.205Z,99825.94
2023-05-21T10:40:05.198Z,99821.28
2023-05-21T10:41:07.506Z,99816.13
2023-05-21T10:42:20.006Z,99819.25
2023-05-21T10:43:45.251Z,99812.78
2023-05-21T10:45:00.735Z,99813.97
2023-05-21T10:46:23.209Z,99815.75
2023-05-21T10:47:49.132Z,99816.91
2023-05-21T10:49:00.962Z,99816.91
2023-05-21T10:50:28.057Z,99817.09
2023-05-21T10:51:38.638Z,99820.59
2023-05-21T10:52:58.072Z,99806.53
2023-05-21T10:54:46.442Z,99809.41
2023-05-21T10:55:59.507Z,99813.59
2023-05-21T10:57:09.094Z,99806.81
2023-05-21T10:58:38.314Z,99803.03
2023-05-21T10:59:42.282Z,99807.84
2023-05-21T11:00:45.511Z,99811.06
2023-05-21T11:01:48.557Z,99814.03
2023-05-21T11:02:52.900Z,99807.75
2023-05-21T11:03:56.383Z,99804.75
2023-05-21T11:04:58.794Z,99796.94
2023-05-21T11:06:03.743Z,99804.59
2023-05-21T11:07:06.681Z,99801.25
2023-05-21T11:08:19.858Z,99797.63
2023-05-21T11:09:22.741Z,99800.75
2023-05-21T11:10:31.364Z,99797.63
2023-05-21T11:11:43.524Z,99793.31
2023-05-21T11:13:08.361Z,99794.41
2023-05-21T11:14:31.847Z,99798.53
2023-05-21T11:16:10.382Z,99797.84
2023-05-21T11:17:16.560Z,99792.88
2023-05-21T11:18:19.660Z,99786.91
2023-05-21T11:19:21.559Z,99780.13
2023-05-21T11:20:24.474Z,99794.94
2023-05-21T11:21:30.514Z,99792.44
2023-05-21T11:22:36.317Z,99787.31
2023-05-21T11:23:48.803Z,99789.13
2023-05-21T11:24:52.148Z,99782.78
2023-05-21T11:26:01.203Z,99787.41
2023-05-21T11:27:04.838Z,99781.25
2023-05-21T11:28:09.480Z,99782.47
2023-05-21T11:29:12.522Z,99790.97
2023-05-21T11:30:17.652Z,99782.66
2023-05-21T11:31:25.374Z,99778.53
2023-05-21T11:32:28.155Z,99773.72
2023-05-21T11:33:29.937Z,99775.53
2023-05-21T11:34:39.550Z,99776.84
2023-05-21T11:35:58.348Z,99776.50
2023-05-21T11:37:27.662Z,99777.81
2023-05-21T11:38:31.941Z,99780.47
2023-05-21T11:39:40.257Z,99775.47
2023-05-21T11:40:51.648Z,99775.28
2023-05-21T11:41:54.163Z,99775.94
2023-05-21T11:42:57.868Z,99778.75
2023-05-21T11:44:01.204Z,99777.56
2023-05-21T11:45:05.020Z,99774.03
2023-05-21T11:46:06.817Z,99771.81
2023-05-21T11:47:11.893Z,99776.72
2023-05-21T11:48:14.674Z,99774.22
2023-05-21T11:49:16.513Z,99771.66
2023-05-21T11:50:19.698Z,99769.97
2023-05-21T11:51:21.639Z,99776.41
2023-05-21T11:52:25.293Z,99768.66
2023-05-21T11:53:30.889Z,99766.59
2023-05-21T11:54:35.978Z,99766.09
2023-05-21T11:55:39.885Z,99766.72
2023-05-21T11:56:42.024Z,99763.53
2023-05-21T11:57:47.890Z,99769.19
2023-05-21T11:58:49.711Z,99769.34
2023-05-21T11:59:52.449Z,99766.97
2023-05-21T12:00:54.200Z,99772.75
2023-05-21T12:01:56.968Z,99772.09
2023-05-21T12:03:01.997Z,99772.34
2023-05-21T12:04:04.458Z,99776.84
2023-05-21T12:05:10.187Z,99765.16
2023-05-21T12:06:12.495Z,99767.78
2023-05-21T12:07:16.107Z,99769.22
2023-05-21T12:08:25.763Z,99769.63
2023-05-21T12:09:27.696Z,99771.69
2023-05-21T12:10:30.594Z,99779.38
2023-05-21T12:11:32.490Z,99771.28
2023-05-21T12:12:46.063Z,99769.53
2023-05-21T12:13:55.556Z,99772.94
2023-05-21T12:15:00.216Z,99770.63
2023-05-21T12:16:05.139Z,99773.81
2023-05-21T12:17:10.353Z,99773.81
2023-05-21T12:18:16.602Z,99773.81
2023-05-21T12:19:18.960Z,99767.91
2023-05-21T12:20:21.946Z,99769.00
2023-05-21T12:21:23.796Z,99765.56
2023-05-21T12:22:29.895Z,99768.03
2023-05-21T12:23:31.838Z,99764.03
2023-05-21T12:24:35.189Z,99769.00
2023-05-21T12:25:38.002Z,99774.09
2023-05-21T12:26:42.014Z,99765.44
2023-05-21T12:27:45.113Z,99772.34
2023-05-21T12:28:47.311Z,99771.03
2023-05-21T12:29:52.700Z,99765.69